sensor_id;sensor_type;location;lat;lon;timestamp;temperature;humidity
74488;DHT22;63019;51.080;13.642;2024-03-23T00:53:21;9.90;99.90
74488;DHT22;63019;51.080;13.642;2024-03-23T00:54:24;9.80;99.90
74488;DHT22;63019;51.080;13.642;2024-03-23T00:55:25;9.80;99.90
74488;DHT22;63019;51.080;13.642;2024-03-23T00:56:26;9.80;99.90
74488;DHT22;63019;51.080;13.642;2024-03-23T00:57:27;9.70;99.90
74488;DHT22;63019;51.080;13.642;2024-03-23T00:58:27;9.70;99.90
74488;DHT22;63019;51.080;13.642;2024-03-23T00:59:28;9.70;99.90
74488;DHT22;63019;51.080;13.642;2024-03-23T01:00:29;9.60;99.90
74488;DHT22;63019;51.080;13.642;2024-03-23T01:01:30;9.60;99.90
74488;DHT22;63019;51.080;13.642;2024-03-23T01:02:31;9.60;99.90
74488;DHT22;63019;51.080;13.642;2024-03-23T01:03:32;9.60;99.90
74488;DHT22;63019;51.080;13.642;2024-03-23T01:04:38;9.60;99.90
74488;DHT22;63019;51.080;13.642;2024-03-23T01:05:54;9.60;99.90
74488;DHT22;63019;51.080;13.642;2024-03-23T01:06:55;9.60;99.90
74488;DHT22;63019;51.080;13.642;2024-03-23T01:07:56;9.60;99.90
74488;DHT22;63019;51.080;13.642;2024-03-23T01:08:57;9.60;99.90
74488;DHT22;63019;51.080;13.642;2024-03-23T01:09:58;9.50;99.90
74488;DHT22;63019;51.080;13.642;2024-03-23T01:11:00;9.50;99.90
74488;DHT22;63019;51.080;13.642;2024-03-23T01:12:01;9.50;99.90
74488;DHT22;63019;51.080;13.642;2024-03-23T01:13:02;9.50;99.90
74488;DHT22;63019;51.080;13.642;2024-03-23T01:14:03;9.50;99.90
74488;DHT22;63019;51.080;13.642;2024-03-23T01:15:04;9.50;99.90
74488;DHT22;63019;51.080;13.642;2024-03-23T01:16:05;9.50;99.90
74488;DHT22;63019;51.080;13.642;2024-03-23T01:17:06;9.50;99.90
74488;DHT22;63019;51.080;13.642;2024-03-23T01:18:07;9.50;99.90
74488;DHT22;63019;51.080;13.642;2024-03-23T01:19:08;9.50;99.90
74488;DHT22;63019;51.080;13.642;2024-03-23T01:20:09;9.40;99.90
74488;DHT22;63019;51.080;13.642;2024-03-23T01:21:11;9.50;99.90
74488;DHT22;63019;51.080;13.642;2024-03-23T01:22:11;9.40;99.90
74488;DHT22;63019;51.080;13.642;2024-03-23T01:23:13;9.40;99.90
74488;DHT22;63019;51.080;13.642;2024-03-23T01:24:15;9.40;99.90
74488;DHT22;63019;51.080;13.642;2024-03-23T01:25:16;9.40;99.90
74488;DHT22;63019;51.080;13.642;2024-03-23T01:26:17;9.40;99.90
74488;DHT22;63019;51.080;13.642;2024-03-23T01:27:18;9.40;99.90
74488;DHT22;63019;51.080;13.642;2024-03-23T01:28:19;9.40;99.90
74488;DHT22;63019;51.080;13.642;2024-03-23T01:29:20;9.40;99.90
74488;DHT22;63019;51.080;13.642;2024-03-23T01:30:21;9.40;99.90
74488;DHT22;63019;51.080;13.642;2024-03-23T01:31:22;9.40;99.90
74488;DHT22;63019;51.080;13.642;2024-03-23T01:32:23;9.40;99.90
74488;DHT22;63019;51.080;13.642;2024-03-23T01:33:24;9.40;99.90
74488;DHT22;63019;51.080;13.642;2024-03-23T01:34:24;9.40;99.90
74488;DHT22;63019;51.080;13.642;2024-03-23T01:35:25;9.40;99.90
74488;DHT22;63019;51.080;13.642;2024-03-23T01:36:26;9.40;99.90
74488;DHT22;63019;51.080;13.642;2024-03-23T01:37:27;9.40;99.90
74488;DHT22;63019;51.080;13.642;2024-03-23T01:38:28;9.40;99.90
74488;DHT22;63019;51.080;13.642;2024-03-23T01:39:29;9.40;99.90
74488;DHT22;63019;51.080;13.642;2024-03-23T01:40:30;9.40;99.90
74488;DHT22;63019;51.080;13.642;2024-03-23T01:41:33;9.30;99.90
74488;DHT22;63019;51.080;13.642;2024-03-23T01:42:33;9.30;99.90
74488;DHT22;63019;51.080;13.642;2024-03-23T01:43:34;9.30;99.90
74488;DHT22;63019;51.080;13.642;2024-03-23T01:44:35;9.30;99.90
74488;DHT22;63019;51.080;13.642;2024-03-23T01:45:36;9.30;99.90
74488;DHT22;63019;51.080;13.642;2024-03-23T01:46:38;9.30;99.90
74488;DHT22;63019;51.080;13.642;2024-03-23T01:47:39;9.30;99.90
74488;DHT22;63019;51.080;13.642;2024-03-23T01:48:40;9.30;99.90
74488;DHT22;63019;51.080;13.642;2024-03-23T01:49:42;9.30;99.90
74488;DHT22;63019;51.080;13.642;2024-03-23T01:50:43;9.30;99.90
74488;DHT22;63019;51.080;13.642;2024-03-23T01:51:44;9.30;99.90
74488;DHT22;63019;51.080;13.642;2024-03-23T01:52:46;9.30;99.90
74488;DHT22;63019;51.080;13.642;2024-03-23T01:53:47;9.30;99.90
74488;DHT22;63019;51.080;13.642;2024-03-23T01:54:48;9.30;99.90
74488;DHT22;63019;51.080;13.642;2024-03-23T01:55:50;9.30;99.90
74488;DHT22;63019;51.080;13.642;2024-03-23T01:56:52;9.30;99.90
74488;DHT22;63019;51.080;13.642;2024-03-23T01:57:53;9.30;99.90
74488;DHT22;63019;51.080;13.642;2024-03-23T01:58:56;9.30;99.90
74488;DHT22;63019;51.080;13.642;2024-03-23T01:59:58;9.30;99.90
74488;DHT22;63019;51.080;13.642;2024-03-23T02:00:58;9.30;99.90
74488;DHT22;63019;51.080;13.642;2024-03-23T02:01:59;9.40;99.90
74488;DHT22;63019;51.080;13.642;2024-03-23T02:03:00;9.40;99.90
74488;DHT22;63019;51.080;13.642;2024-03-23T02:04:01;9.40;99.90
74488;DHT22;63019;51.080;13.642;2024-03-23T02:05:03;9.40;99.90
74488;DHT22;63019;51.080;13.642;2024-03-23T02:06:04;9.40;99.90
74488;DHT22;63019;51.080;13.642;2024-03-23T02:07:07;9.40;99.90
74488;DHT22;63019;51.080;13.642;2024-03-23T02:08:08;9.40;99.90
74488;DHT22;63019;51.080;13.642;2024-03-23T02:09:09;9.40;99.90
74488;DHT22;63019;51.080;13.642;2024-03-23T02:10:11;9.40;99.90
74488;DHT22;63019;51.080;13.642;2024-03-23T02:11:14;9.40;99.90
74488;DHT22;63019;51.080;13.642;2024-03-23T02:12:15;9.40;99.90
74488;DHT22;63019;51.080;13.642;2024-03-23T02:13:17;9.40;99.90
74488;DHT22;63019;51.080;13.642;2024-03-23T02:14:18;9.40;99.90
74488;DHT22;63019;51.080;13.642;2024-03-23T02:15:19;9.40;99.90
74488;DHT22;63019;51.080;13.642;2024-03-23T02:16:20;9.50;99.90
74488;DHT22;63019;51.080;13.642;2024-03-23T02:17:21;9.50;99.90
74488;DHT22;63019;51.080;13.642;2024-03-23T02:18:22;9.50;99.90
74488;DHT22;63019;51.080;13.642;2024-03-23T02:19:23;9.50;99.90
74488;DHT22;63019;51.080;13.642;2024-03-23T02:20:24;9.50;99.90
74488;DHT22;63019;51.080;13.642;2024-03-23T02:21:24;9.50;99.90
74488;DHT22;63019;51.080;13.642;2024-03-23T02:22:36;9.60;99.90
74488;DHT22;63019;51.080;13.642;2024-03-23T02:23:38;9.60;99.90
74488;DHT22;63019;51.080;13.642;2024-03-23T02:24:39;9.60;99.90
74488;DHT22;63019;51.080;13.642;2024-03-23T02:25:39;9.60;99.90
74488;DHT22;63019;51.080;13.642;2024-03-23T02:26:40;9.70;99.90
74488;DHT22;63019;51.080;13.642;2024-03-23T02:27:41;9.70;99.90
74488;DHT22;63019;51.080;13.642;2024-03-23T02:28:42;9.70;99.90
74488;DHT22;63019;51.080;13.642;2024-03-23T02:29:43;9.70;99.90
74488;DHT22;63019;51.080;13.642;2024-03-23T02:30:44;9.70;99.90
74488;DHT22;63019;51.080;13.642;2024-03-23T02:31:45;9.70;99.90
74488;DHT22;63019;51.080;13.642;2024-03-23T02:32:46;9.60;99.90
74488;DHT22;63019;51.080;13.642;2024-03-23T02:33:47;9.60;99.90
74488;DHT22;63019;51.080;13.642;2024-03-23T02:34:48;9.70;99.90
74488;DHT22;63019;51.080;13.642;2024-03-23T02:35:49;9.70;99.90
74488;DHT22;63019;51.080;13.642;2024-03-23T02:36:50;9.70;99.90
74488;DHT22;63019;51.080;13.642;2024-03-23T02:37:51;9.70;99.90
74488;DHT22;63019;51.080;13.642;2024-03-23T02:38:52;9.70;99.90
74488;DHT22;63019;51.080;13.642;2024-03-23T02:39:53;9.70;99.90
74488;DHT22;63019;51.080;13.642;2024-03-23T02:40:54;9.70;99.90
74488;DHT22;63019;51.080;13.642;2024-03-23T02:41:55;9.60;99.90
74488;DHT22;63019;51.080;13.642;2024-03-23T02:42:56;9.60;99.90
74488;DHT22;63019;51.080;13.642;2024-03-23T02:43:57;9.60;99.90
74488;DHT22;63019;51.080;13.642;2024-03-23T02:44:58;9.60;99.90
74488;DHT22;63019;51.080;13.642;2024-03-23T02:45:59;9.60;99.90
74488;DHT22;63019;51.080;13.642;2024-03-23T02:47:01;9.50;99.90
74488;DHT22;63019;51.080;13.642;2024-03-23T02:48:02;9.50;99.90
74488;DHT22;63019;51.080;13.642;2024-03-23T02:49:05;9.50;99.90
74488;DHT22;63019;51.080;13.642;2024-03-23T02:50:07;9.50;99.90
74488;DHT22;63019;51.080;13.642;2024-03-23T02:51:08;9.50;99.90
74488;DHT22;63019;51.080;13.642;2024-03-23T02:52:09;9.50;99.90
74488;DHT22;63019;51.080;13.642;2024-03-23T02:53:10;9.50;99.90
74488;DHT22;63019;51.080;13.642;2024-03-23T02:54:11;9.50;99.90
74488;DHT22;63019;51.080;13.642;2024-03-23T02:55:12;9.50;99.90
74488;DHT22;63019;51.080;13.642;2024-03-23T02:56:13;9.50;99.90
74488;DHT22;63019;51.080;13.642;2024-03-23T02:57:16;9.50;99.90
74488;DHT22;63019;51.080;13.642;2024-03-23T02:58:17;9.40;99.90
74488;DHT22;63019;51.080;13.642;2024-03-23T02:59:18;9.40;99.90
74488;DHT22;63019;51.080;13.642;2024-03-23T03:00:22;9.40;99.90
74488;DHT22;63019;51.080;13.642;2024-03-23T03:01:29;9.40;99.90
74488;DHT22;63019;51.080;13.642;2024-03-23T03:02:30;9.40;99.90
74488;DHT22;63019;51.080;13.642;2024-03-23T03:03:30;9.40;99.90
74488;DHT22;63019;51.080;13.642;2024-03-23T03:04:32;9.40;99.90
74488;DHT22;63019;51.080;13.642;2024-03-23T03:05:33;9.40;99.90
74488;DHT22;63019;51.080;13.642;2024-03-23T03:06:34;9.40;99.90
74488;DHT22;63019;51.080;13.642;2024-03-23T03:07:35;9.40;99.90
74488;DHT22;63019;51.080;13.642;2024-03-23T03:08:36;9.40;99.90
74488;DHT22;63019;51.080;13.642;2024-03-23T03:09:37;9.40;99.90
74488;DHT22;63019;51.080;13.642;2024-03-23T03:10:39;9.40;99.90
74488;DHT22;63019;51.080;13.642;2024-03-23T03:11:40;9.40;99.90
74488;DHT22;63019;51.080;13.642;2024-03-23T03:12:51;9.50;99.90
74488;DHT22;63019;51.080;13.642;2024-03-23T03:13:52;9.50;99.90
74488;DHT22;63019;51.080;13.642;2024-03-23T03:14:53;9.50;99.90
74488;DHT22;63019;51.080;13.642;2024-03-23T03:15:55;9.50;99.90
74488;DHT22;63019;51.080;13.642;2024-03-23T03:16:56;9.50;99.90
74488;DHT22;63019;51.080;13.642;2024-03-23T03:17:57;9.50;99.90
74488;DHT22;63019;51.080;13.642;2024-03-23T03:18:58;9.50;99.90
74488;DHT22;63019;51.080;13.642;2024-03-23T03:19:59;9.50;99.90
74488;DHT22;63019;51.080;13.642;2024-03-23T03:21:00;9.50;99.90
74488;DHT22;63019;51.080;13.642;2024-03-23T03:22:01;9.50;99.90
74488;DHT22;63019;51.080;13.642;2024-03-23T03:23:05;9.60;99.90
74488;DHT22;63019;51.080;13.642;2024-03-23T03:24:06;9.60;99.90
74488;DHT22;63019;51.080;13.642;2024-03-23T03:25:07;9.60;99.90
74488;DHT22;63019;51.080;13.642;2024-03-23T03:26:08;9.60;99.90
74488;DHT22;63019;51.080;13.642;2024-03-23T03:27:09;9.50;99.90
74488;DHT22;63019;51.080;13.642;2024-03-23T03:28:10;9.50;99.90
74488;DHT22;63019;51.080;13.642;2024-03-23T03:29:13;9.50;99.90
74488;DHT22;63019;51.080;13.642;2024-03-23T03:30:13;9.50;99.90
74488;DHT22;63019;51.080;13.642;2024-03-23T03:31:15;9.50;99.90
74488;DHT22;63019;51.080;13.642;2024-03-23T03:32:16;9.50;99.90
74488;DHT22;63019;51.080;13.642;2024-03-23T03:33:17;9.50;99.90
74488;DHT22;63019;51.080;13.642;2024-03-23T03:34:18;9.50;99.90
74488;DHT22;63019;51.080;13.642;2024-03-23T03:35:20;9.50;99.90
74488;DHT22;63019;51.080;13.642;2024-03-23T03:36:21;9.50;99.90
74488;DHT22;63019;51.080;13.642;2024-03-23T03:37:22;9.50;99.90
74488;DHT22;63019;51.080;13.642;2024-03-23T03:38:22;9.60;99.90
74488;DHT22;63019;51.080;13.642;2024-03-23T03:39:24;9.50;99.90
74488;DHT22;63019;51.080;13.642;2024-03-23T03:40:25;9.60;99.90
74488;DHT22;63019;51.080;13.642;2024-03-23T03:41:26;9.60;99.90
74488;DHT22;63019;51.080;13.642;2024-03-23T03:42:26;9.60;99.90
74488;DHT22;63019;51.080;13.642;2024-03-23T03:43:27;9.60;99.90
74488;DHT22;63019;51.080;13.642;2024-03-23T03:44:28;9.60;99.90
74488;DHT22;63019;51.080;13.642;2024-03-23T03:45:29;9.60;99.90
74488;DHT22;63019;51.080;13.642;2024-03-23T03:46:30;9.60;99.90
74488;DHT22;63019;51.080;13.642;2024-03-23T03:47:31;9.60;99.90
74488;DHT22;63019;51.080;13.642;2024-03-23T03:48:32;9.60;99.90
74488;DHT22;63019;51.080;13.642;2024-03-23T03:49:33;9.70;99.90
74488;DHT22;63019;51.080;13.642;2024-03-23T03:50:34;9.60;99.90
74488;DHT22;63019;51.080;13.642;2024-03-23T03:51:35;9.70;99.90
74488;DHT22;63019;51.080;13.642;2024-03-23T03:52:36;9.70;99.90
74488;DHT22;63019;51.080;13.642;2024-03-23T03:53:37;9.70;99.90
74488;DHT22;63019;51.080;13.642;2024-03-23T03:54:38;9.80;99.90
74488;DHT22;63019;51.080;13.642;2024-03-23T03:55:38;9.80;99.90
74488;DHT22;63019;51.080;13.642;2024-03-23T03:56:39;9.80;99.90
74488;DHT22;63019;51.080;13.642;2024-03-23T03:57:43;9.80;99.90
74488;DHT22;63019;51.080;13.642;2024-03-23T03:58:44;9.80;99.90
74488;DHT22;63019;51.080;13.642;2024-03-23T03:59:45;9.80;99.90
74488;DHT22;63019;51.080;13.642;2024-03-23T04:00:46;9.80;99.90
74488;DHT22;63019;51.080;13.642;2024-03-23T04:01:47;9.80;99.90
74488;DHT22;63019;51.080;13.642;2024-03-23T04:02:48;9.80;99.90
74488;DHT22;63019;51.080;13.642;2024-03-23T04:03:49;9.80;99.90
74488;DHT22;63019;51.080;13.642;2024-03-23T04:04:51;9.80;99.90
74488;DHT22;63019;51.080;13.642;2024-03-23T04:06:10;9.80;99.90
74488;DHT22;63019;51.080;13.642;2024-03-23T04:07:11;9.90;99.90
74488;DHT22;63019;51.080;13.642;2024-03-23T04:08:12;9.90;99.90
74488;DHT22;63019;51.080;13.642;2024-03-23T04:09:13;9.90;99.90
74488;DHT22;63019;51.080;13.642;2024-03-23T04:10:14;9.80;99.90
74488;DHT22;63019;51.080;13.642;2024-03-23T04:11:15;9.80;99.90
74488;DHT22;63019;51.080;13.642;2024-03-23T04:12:16;9.80;99.90
74488;DHT22;63019;51.080;13.642;2024-03-23T04:13:17;9.80;99.90
74488;DHT22;63019;51.080;13.642;2024-03-23T04:14:18;9.80;99.90
74488;DHT22;63019;51.080;13.642;2024-03-23T04:15:24;9.70;99.90
74488;DHT22;63019;51.080;13.642;2024-03-23T04:16:35;9.70;99.90
74488;DHT22;63019;51.080;13.642;2024-03-23T04:17:36;9.70;99.90
74488;DHT22;63019;51.080;13.642;2024-03-23T04:18:37;9.70;99.90
74488;DHT22;63019;51.080;13.642;2024-03-23T04:20:10;9.70;99.90
74488;DHT22;63019;51.080;13.642;2024-03-23T04:21:30;9.60;99.90
74488;DHT22;63019;51.080;13.642;2024-03-23T04:22:52;9.60;99.90
74488;DHT22;63019;51.080;13.642;2024-03-23T04:23:54;9.60;99.90
74488;DHT22;63019;51.080;13.642;2024-03-23T04:24:57;9.60;99.90
74488;DHT22;63019;51.080;13.642;2024-03-23T04:26:03;9.60;99.90
74488;DHT22;63019;51.080;13.642;2024-03-23T04:27:05;9.60;99.90
74488;DHT22;63019;51.080;13.642;2024-03-23T04:28:06;9.60;99.90
74488;DHT22;63019;51.080;13.642;2024-03-23T04:29:08;9.60;99.90
74488;DHT22;63019;51.080;13.642;2024-03-23T04:30:09;9.60;99.90
74488;DHT22;63019;51.080;13.642;2024-03-23T04:31:11;9.60;99.90
74488;DHT22;63019;51.080;13.642;2024-03-23T04:32:13;9.60;99.90
74488;DHT22;63019;51.080;13.642;2024-03-23T04:33:14;9.60;99.90
74488;DHT22;63019;51.080;13.642;2024-03-23T04:34:15;9.50;99.90
74488;DHT22;63019;51.080;13.642;2024-03-23T04:35:16;9.50;99.90
74488;DHT22;63019;51.080;13.642;2024-03-23T04:36:17;9.50;99.90
74488;DHT22;63019;51.080;13.642;2024-03-23T04:37:18;9.50;99.90
74488;DHT22;63019;51.080;13.642;2024-03-23T04:38:21;9.50;99.90
74488;DHT22;63019;51.080;13.642;2024-03-23T04:39:31;9.50;99.90
74488;DHT22;63019;51.080;13.642;2024-03-23T04:40:32;9.50;99.90
74488;DHT22;63019;51.080;13.642;2024-03-23T04:41:34;9.40;99.90
74488;DHT22;63019;51.080;13.642;2024-03-23T04:42:35;9.40;99.90
74488;DHT22;63019;51.080;13.642;2024-03-23T04:43:36;9.40;99.90
74488;DHT22;63019;51.080;13.642;2024-03-23T04:44:37;9.40;99.90
74488;DHT22;63019;51.080;13.642;2024-03-23T04:45:39;9.40;99.90
74488;DHT22;63019;51.080;13.642;2024-03-23T04:46:41;9.40;99.90
74488;DHT22;63019;51.080;13.642;2024-03-23T04:47:43;9.40;99.90
74488;DHT22;63019;51.080;13.642;2024-03-23T04:48:43;9.30;99.90
74488;DHT22;63019;51.080;13.642;2024-03-23T04:49:45;9.40;99.90
74488;DHT22;63019;51.080;13.642;2024-03-23T04:50:46;9.40;99.90
74488;DHT22;63019;51.080;13.642;2024-03-23T04:51:47;9.40;99.90
74488;DHT22;63019;51.080;13.642;2024-03-23T04:52:48;9.40;99.90
74488;DHT22;63019;51.080;13.642;2024-03-23T04:53:49;9.40;99.90
74488;DHT22;63019;51.080;13.642;2024-03-23T04:54:50;9.30;99.90
74488;DHT22;63019;51.080;13.642;2024-03-23T04:55:51;9.30;99.90
74488;DHT22;63019;51.080;13.642;2024-03-23T04:56:52;9.30;99.90
74488;DHT22;63019;51.080;13.642;2024-03-23T04:57:53;9.30;99.90
74488;DHT22;63019;51.080;13.642;2024-03-23T04:58:54;9.30;99.90
74488;DHT22;63019;51.080;13.642;2024-03-23T04:59:55;9.20;99.90
74488;DHT22;63019;51.080;13.642;2024-03-23T05:00:57;9.20;99.90
74488;DHT22;63019;51.080;13.642;2024-03-23T05:01:58;9.20;99.90
74488;DHT22;63019;51.080;13.642;2024-03-23T05:02:59;9.20;99.90
74488;DHT22;63019;51.080;13.642;2024-03-23T05:04:00;9.20;99.90
74488;DHT22;63019;51.080;13.642;2024-03-23T05:05:02;9.20;99.90
74488;DHT22;63019;51.080;13.642;2024-03-23T05:06:03;9.20;99.90
74488;DHT22;63019;51.080;13.642;2024-03-23T05:07:04;9.10;99.90
74488;DHT22;63019;51.080;13.642;2024-03-23T05:08:05;9.10;99.90
74488;DHT22;63019;51.080;13.642;2024-03-23T05:09:06;9.10;99.90
74488;DHT22;63019;51.080;13.642;2024-03-23T05:10:09;9.00;99.90
74488;DHT22;63019;51.080;13.642;2024-03-23T05:11:14;9.00;99.90
74488;DHT22;63019;51.080;13.642;2024-03-23T05:12:17;9.00;99.90
74488;DHT22;63019;51.080;13.642;2024-03-23T05:13:18;9.00;99.90
74488;DHT22;63019;51.080;13.642;2024-03-23T05:14:19;9.00;99.90
74488;DHT22;63019;51.080;13.642;2024-03-23T05:15:20;9.00;99.90
74488;DHT22;63019;51.080;13.642;2024-03-23T05:16:21;9.10;99.90
74488;DHT22;63019;51.080;13.642;2024-03-23T05:17:22;9.10;99.90
74488;DHT22;63019;51.080;13.642;2024-03-23T05:18:22;9.10;99.90
74488;DHT22;63019;51.080;13.642;2024-03-23T05:19:27;9.10;99.90
74488;DHT22;63019;51.080;13.642;2024-03-23T05:20:28;9.10;99.90
74488;DHT22;63019;51.080;13.642;2024-03-23T05:21:29;9.10;99.90
74488;DHT22;63019;51.080;13.642;2024-03-23T05:22:30;9.20;99.90
74488;DHT22;63019;51.080;13.642;2024-03-23T05:23:31;9.20;99.90
74488;DHT22;63019;51.080;13.642;2024-03-23T05:24:34;9.20;99.90
74488;DHT22;63019;51.080;13.642;2024-03-23T05:25:35;9.20;99.90
74488;DHT22;63019;51.080;13.642;2024-03-23T05:26:36;9.20;99.90
74488;DHT22;63019;51.080;13.642;2024-03-23T05:27:37;9.20;99.90
74488;DHT22;63019;51.080;13.642;2024-03-23T05:28:38;9.20;99.90
74488;DHT22;63019;51.080;13.642;2024-03-23T05:29:39;9.10;99.90
74488;DHT22;63019;51.080;13.642;2024-03-23T05:30:40;9.20;99.90
74488;DHT22;63019;51.080;13.642;2024-03-23T05:31:41;9.10;99.90
74488;DHT22;63019;51.080;13.642;2024-03-23T05:32:42;9.20;99.90
74488;DHT22;63019;51.080;13.642;2024-03-23T05:33:43;9.20;99.90
74488;DHT22;63019;51.080;13.642;2024-03-23T05:34:44;9.20;99.90
74488;DHT22;63019;51.080;13.642;2024-03-23T05:35:45;9.20;99.90
74488;DHT22;63019;51.080;13.642;2024-03-23T05:36:46;9.20;99.90
74488;DHT22;63019;51.080;13.642;2024-03-23T05:37:48;9.20;99.90
74488;DHT22;63019;51.080;13.642;2024-03-23T05:38:50;9.20;99.90
74488;DHT22;63019;51.080;13.642;2024-03-23T05:39:51;9.20;99.90
74488;DHT22;63019;51.080;13.642;2024-03-23T05:40:55;9.20;99.90
74488;DHT22;63019;51.080;13.642;2024-03-23T05:41:57;9.20;99.90
74488;DHT22;63019;51.080;13.642;2024-03-23T05:42:58;9.20;99.90
74488;DHT22;63019;51.080;13.642;2024-03-23T05:43:59;9.20;99.90
74488;DHT22;63019;51.080;13.642;2024-03-23T05:45:00;9.30;99.90
74488;DHT22;63019;51.080;13.642;2024-03-23T05:46:01;9.30;99.90
74488;DHT22;63019;51.080;13.642;2024-03-23T05:47:11;9.30;99.90
74488;DHT22;63019;51.080;13.642;2024-03-23T05:48:17;9.30;99.90
74488;DHT22;63019;51.080;13.642;2024-03-23T05:49:18;9.30;99.90
74488;DHT22;63019;51.080;13.642;2024-03-23T05:50:19;9.30;99.90
74488;DHT22;63019;51.080;13.642;2024-03-23T05:51:20;9.30;99.90
74488;DHT22;63019;51.080;13.642;2024-03-23T05:52:21;9.30;99.90
74488;DHT22;63019;51.080;13.642;2024-03-23T05:53:22;9.30;99.90
74488;DHT22;63019;51.080;13.642;2024-03-23T05:54:24;9.30;99.90
74488;DHT22;63019;51.080;13.642;2024-03-23T05:55:25;9.30;99.90
74488;DHT22;63019;51.080;13.642;2024-03-23T05:56:28;9.30;99.90
74488;DHT22;63019;51.080;13.642;2024-03-23T05:57:29;9.30;99.90
74488;DHT22;63019;51.080;13.642;2024-03-23T05:58:30;9.30;99.90
74488;DHT22;63019;51.080;13.642;2024-03-23T05:59:31;9.30;99.90
74488;DHT22;63019;51.080;13.642;2024-03-23T06:00:33;9.30;99.90
74488;DHT22;63019;51.080;13.642;2024-03-23T06:01:34;9.30;99.90
74488;DHT22;63019;51.080;13.642;2024-03-23T06:02:35;9.30;99.90
74488;DHT22;63019;51.080;13.642;2024-03-23T06:03:36;9.30;99.90
74488;DHT22;63019;51.080;13.642;2024-03-23T06:04:37;9.30;99.90
74488;DHT22;63019;51.080;13.642;2024-03-23T06:05:38;9.40;99.90
74488;DHT22;63019;51.080;13.642;2024-03-23T06:06:39;9.40;99.90
74488;DHT22;63019;51.080;13.642;2024-03-23T06:07:40;9.40;99.90
74488;DHT22;63019;51.080;13.642;2024-03-23T06:08:41;9.30;99.90
74488;DHT22;63019;51.080;13.642;2024-03-23T06:09:42;9.30;99.90
74488;DHT22;63019;51.080;13.642;2024-03-23T06:10:43;9.30;99.90
74488;DHT22;63019;51.080;13.642;2024-03-23T06:11:45;9.30;99.90
74488;DHT22;63019;51.080;13.642;2024-03-23T06:12:51;9.40;99.90
74488;DHT22;63019;51.080;13.642;2024-03-23T06:13:52;9.40;99.90
74488;DHT22;63019;51.080;13.642;2024-03-23T06:14:53;9.40;99.90
74488;DHT22;63019;51.080;13.642;2024-03-23T06:15:55;9.30;99.90
74488;DHT22;63019;51.080;13.642;2024-03-23T06:16:56;9.40;99.90
74488;DHT22;63019;51.080;13.642;2024-03-23T06:17:56;9.30;99.90
74488;DHT22;63019;51.080;13.642;2024-03-23T06:18:57;9.30;99.90
74488;DHT22;63019;51.080;13.642;2024-03-23T06:19:59;9.30;99.90
74488;DHT22;63019;51.080;13.642;2024-03-23T06:21:00;9.30;99.90
74488;DHT22;63019;51.080;13.642;2024-03-23T06:22:01;9.30;99.90
74488;DHT22;63019;51.080;13.642;2024-03-23T06:23:02;9.30;99.90
74488;DHT22;63019;51.080;13.642;2024-03-23T06:24:04;9.30;99.90
74488;DHT22;63019;51.080;13.642;2024-03-23T06:25:06;9.30;99.90
74488;DHT22;63019;51.080;13.642;2024-03-23T06:26:07;9.30;99.90
74488;DHT22;63019;51.080;13.642;2024-03-23T06:27:11;9.30;99.90
74488;DHT22;63019;51.080;13.642;2024-03-23T06:28:12;9.40;99.90
74488;DHT22;63019;51.080;13.642;2024-03-23T06:29:13;9.40;99.90
74488;DHT22;63019;51.080;13.642;2024-03-23T06:30:14;9.40;99.90
74488;DHT22;63019;51.080;13.642;2024-03-23T06:31:15;9.30;99.90
74488;DHT22;63019;51.080;13.642;2024-03-23T06:32:16;9.30;99.90
74488;DHT22;63019;51.080;13.642;2024-03-23T06:33:17;9.40;99.90
74488;DHT22;63019;51.080;13.642;2024-03-23T06:34:18;9.30;99.90
74488;DHT22;63019;51.080;13.642;2024-03-23T06:35:19;9.30;99.90
74488;DHT22;63019;51.080;13.642;2024-03-23T06:36:20;9.30;99.90
74488;DHT22;63019;51.080;13.642;2024-03-23T06:37:21;9.40;99.90
74488;DHT22;63019;51.080;13.642;2024-03-23T06:38:21;9.30;99.90
74488;DHT22;63019;51.080;13.642;2024-03-23T06:39:22;9.40;99.90
74488;DHT22;63019;51.080;13.642;2024-03-23T06:40:24;9.30;99.90
74488;DHT22;63019;51.080;13.642;2024-03-23T06:41:25;9.30;99.90
74488;DHT22;63019;51.080;13.642;2024-03-23T06:42:26;9.30;99.90
74488;DHT22;63019;51.080;13.642;2024-03-23T06:43:27;9.30;99.90
74488;DHT22;63019;51.080;13.642;2024-03-23T06:44:28;9.30;99.90
74488;DHT22;63019;51.080;13.642;2024-03-23T06:45:29;9.30;99.90
74488;DHT22;63019;51.080;13.642;2024-03-23T06:46:30;9.30;99.90
74488;DHT22;63019;51.080;13.642;2024-03-23T06:47:32;9.30;99.90
74488;DHT22;63019;51.080;13.642;2024-03-23T06:48:33;9.30;99.90
74488;DHT22;63019;51.080;13.642;2024-03-23T06:49:33;9.30;99.90
74488;DHT22;63019;51.080;13.642;2024-03-23T06:50:34;9.30;99.90
74488;DHT22;63019;51.080;13.642;2024-03-23T06:51:36;9.20;99.90
74488;DHT22;63019;51.080;13.642;2024-03-23T06:52:38;9.20;99.90
74488;DHT22;63019;51.080;13.642;2024-03-23T06:53:39;9.20;99.90
74488;DHT22;63019;51.080;13.642;2024-03-23T06:54:39;9.20;99.90
74488;DHT22;63019;51.080;13.642;2024-03-23T06:55:41;9.20;99.90
74488;DHT22;63019;51.080;13.642;2024-03-23T06:56:42;9.20;99.90
74488;DHT22;63019;51.080;13.642;2024-03-23T06:57:42;9.20;99.90
74488;DHT22;63019;51.080;13.642;2024-03-23T06:58:43;9.20;99.90
74488;DHT22;63019;51.080;13.642;2024-03-23T06:59:44;9.20;99.90
74488;DHT22;63019;51.080;13.642;2024-03-23T07:00:45;9.20;99.90
74488;DHT22;63019;51.080;13.642;2024-03-23T07:01:47;9.20;99.90
74488;DHT22;63019;51.080;13.642;2024-03-23T07:02:48;9.20;99.90
74488;DHT22;63019;51.080;13.642;2024-03-23T07:03:48;9.20;99.90
74488;DHT22;63019;51.080;13.642;2024-03-23T07:04:49;9.20;99.90
74488;DHT22;63019;51.080;13.642;2024-03-23T07:05:50;9.20;99.90
74488;DHT22;63019;51.080;13.642;2024-03-23T07:06:51;9.10;99.90
74488;DHT22;63019;51.080;13.642;2024-03-23T07:07:52;9.10;99.90
74488;DHT22;63019;51.080;13.642;2024-03-23T07:08:53;9.10;99.90
74488;DHT22;63019;51.080;13.642;2024-03-23T07:09:55;9.10;99.90
74488;DHT22;63019;51.080;13.642;2024-03-23T07:10:55;9.10;99.90
74488;DHT22;63019;51.080;13.642;2024-03-23T07:11:57;9.10;99.90
74488;DHT22;63019;51.080;13.642;2024-03-23T07:12:58;9.10;99.90
74488;DHT22;63019;51.080;13.642;2024-03-23T07:13:59;9.10;99.90
74488;DHT22;63019;51.080;13.642;2024-03-23T07:15:00;9.10;99.90
74488;DHT22;63019;51.080;13.642;2024-03-23T07:16:01;9.10;99.90
74488;DHT22;63019;51.080;13.642;2024-03-23T07:17:02;9.10;99.90
74488;DHT22;63019;51.080;13.642;2024-03-23T07:18:03;9.00;99.90
74488;DHT22;63019;51.080;13.642;2024-03-23T07:19:04;9.00;99.90
74488;DHT22;63019;51.080;13.642;2024-03-23T07:20:05;9.00;99.90
74488;DHT22;63019;51.080;13.642;2024-03-23T07:21:11;9.00;99.90
74488;DHT22;63019;51.080;13.642;2024-03-23T07:22:11;9.00;99.90